createdAt,value
2018-12-27T00:00:20.500Z,3.89
2018-12-27T00:02:54.889Z,3.80
2018-12-27T00:05:17.587Z,3.75
2018-12-27T00:07:45.145Z,3.72
2018-12-27T00:10:12.661Z,3.78
2018-12-27T00:12:41.101Z,3.87
2018-12-27T00:15:09.458Z,3.91
2018-12-27T00:17:36.899Z,3.94
2018-12-27T00:20:04.418Z,3.91
2018-12-27T00:22:32.004Z,3.84
2018-12-27T00:24:59.452Z,3.75
2018-12-27T00:27:26.952Z,3.73
2018-12-27T00:29:55.649Z,3.72
2018-12-27T00:32:23.250Z,3.75
2018-12-27T00:34:50.818Z,3.71
2018-12-27T00:37:18.293Z,3.70
2018-12-27T00:39:45.741Z,3.77
2018-12-27T00:42:13.230Z,3.74
2018-12-27T00:44:40.686Z,3.60
2018-12-27T00:47:08.143Z,3.53
2018-12-27T00:49:36.040Z,3.55
2018-12-27T00:52:03.538Z,3.56
2018-12-27T00:54:31.107Z,3.66
2018-12-27T00:56:58.645Z,3.66
2018-12-27T00:59:26.421Z,3.67
2018-12-27T01:01:53.898Z,3.70
2018-12-27T01:04:21.334Z,3.66
2018-12-27T01:06:48.833Z,3.54
2018-12-27T01:09:16.867Z,3.38
2018-12-27T01:11:44.290Z,3.30
2018-12-27T01:14:11.771Z,3.29
2018-12-27T01:16:39.400Z,3.30
2018-12-27T01:19:06.882Z,3.36
2018-12-27T01:21:34.351Z,3.40
2018-12-27T01:24:01.856Z,3.35
2018-12-27T01:26:29.432Z,3.34
2018-12-27T01:28:56.898Z,3.36
2018-12-27T01:31:24.332Z,3.38
2018-12-27T01:33:51.811Z,3.46
2018-12-27T01:36:19.349Z,3.59
2018-12-27T01:38:46.840Z,3.62
2018-12-27T01:41:14.671Z,3.61
2018-12-27T01:43:42.228Z,3.58
2018-12-27T01:46:09.891Z,3.62
2018-12-27T01:48:37.932Z,3.66
2018-12-27T01:51:06.344Z,3.67
2018-12-27T01:53:33.840Z,3.57
2018-12-27T01:56:01.263Z,3.63
2018-12-27T01:58:28.856Z,3.71
2018-12-27T02:00:56.382Z,3.63
2018-12-27T02:03:26.606Z,3.53
2018-12-27T02:05:51.329Z,3.49
2018-12-27T02:08:18.895Z,3.56
2018-12-27T02:10:46.380Z,3.62
2018-12-27T02:13:13.819Z,3.59
2018-12-27T02:15:41.330Z,3.37
2018-12-27T02:18:08.902Z,3.37
2018-12-27T02:20:36.363Z,3.43
2018-12-27T02:23:04.517Z,3.43
2018-12-27T02:25:31.963Z,3.54
2018-12-27T02:27:59.566Z,3.70
2018-12-27T02:30:27.289Z,3.74
2018-12-27T02:32:54.926Z,3.76
2018-12-27T02:35:22.406Z,3.83
2018-12-27T02:37:50.825Z,3.81
2018-12-27T02:40:18.382Z,3.71
2018-12-27T02:42:45.920Z,3.76
2018-12-27T02:45:13.428Z,3.81
2018-12-27T02:47:40.965Z,3.78
2018-12-27T02:50:08.537Z,3.66
2018-12-27T02:52:36.053Z,3.59
2018-12-27T02:55:03.510Z,3.47
2018-12-27T02:57:31.365Z,3.47
2018-12-27T02:59:59.139Z,3.47
2018-12-27T03:02:26.813Z,3.49
2018-12-27T03:04:54.284Z,3.43
2018-12-27T03:07:21.849Z,3.43
2018-12-27T03:09:49.392Z,3.41
2018-12-27T03:12:17.335Z,3.47
2018-12-27T03:14:46.553Z,3.47
2018-12-27T03:17:14.690Z,3.47
2018-12-27T03:19:42.209Z,3.40
2018-12-27T03:22:09.743Z,3.39
2018-12-27T03:24:37.260Z,3.34
2018-12-27T03:27:07.421Z,3.35
2018-12-27T03:29:34.890Z,3.37
2018-12-27T03:32:02.517Z,3.32
2018-12-27T03:34:30.204Z,3.26
2018-12-27T03:36:57.874Z,3.18
2018-12-27T03:39:25.605Z,3.14
2018-12-27T03:41:53.160Z,3.20
2018-12-27T03:44:20.630Z,3.37
2018-12-27T03:46:48.257Z,3.43
2018-12-27T03:49:16.081Z,3.48
2018-12-27T03:51:43.721Z,3.51
2018-12-27T03:54:11.825Z,3.47
2018-12-27T03:56:39.488Z,3.48
2018-12-27T03:59:06.956Z,3.37
2018-12-27T04:01:34.740Z,3.27
2018-12-27T04:04:02.461Z,3.30
2018-12-27T04:06:30.032Z,3.39
2018-12-27T04:08:57.776Z,3.40
2018-12-27T04:11:26.127Z,3.32
2018-12-27T04:13:53.755Z,3.37
2018-12-27T04:16:21.591Z,3.35
2018-12-27T04:18:49.182Z,3.29
2018-12-27T04:21:20.443Z,3.39
2018-12-27T04:23:48.101Z,3.44
2018-12-27T04:26:15.527Z,3.32
2018-12-27T04:28:43.176Z,3.28
2018-12-27T04:31:10.679Z,3.36
2018-12-27T04:36:11.929Z,3.34
2018-12-27T04:38:39.442Z,3.21
2018-12-27T04:41:07.175Z,3.12
2018-12-27T04:43:36.108Z,3.03
2018-12-27T04:46:03.820Z,3.10
2018-12-27T04:48:31.513Z,3.08
2018-12-27T04:50:58.997Z,3.10
2018-12-27T04:53:26.558Z,3.12
2018-12-27T04:55:54.088Z,3.13
2018-12-27T04:58:21.557Z,3.26
2018-12-27T05:00:50.467Z,3.27
2018-12-27T05:03:18.183Z,3.16
2018-12-27T05:05:46.494Z,3.14
2018-12-27T05:08:14.173Z,3.16
2018-12-27T05:10:41.787Z,3.18
2018-12-27T05:13:09.848Z,3.23
2018-12-27T05:15:37.573Z,3.28
2018-12-27T05:18:05.140Z,3.26
2018-12-27T05:20:32.583Z,3.30
2018-12-27T05:23:00.256Z,3.34
2018-12-27T05:25:27.764Z,3.34
2018-12-27T05:27:55.253Z,3.28
2018-12-27T05:30:22.723Z,3.30
2018-12-27T05:32:50.783Z,3.38
2018-12-27T05:35:18.238Z,3.42
2018-12-27T05:37:45.699Z,3.48
2018-12-27T05:40:14.378Z,3.50
2018-12-27T05:42:42.052Z,3.37
2018-12-27T05:45:09.613Z,3.29
2018-12-27T05:47:37.898Z,3.15
2018-12-27T05:50:05.594Z,3.16
2018-12-27T05:52:34.131Z,3.10
2018-12-27T05:55:03.023Z,3.20
2018-12-27T05:57:30.914Z,3.22
2018-12-27T05:59:58.513Z,3.24
2018-12-27T06:02:26.082Z,3.28
2018-12-27T06:04:53.807Z,3.23
2018-12-27T06:07:21.301Z,3.17
2018-12-27T06:09:48.784Z,3.19
2018-12-27T06:12:21.377Z,2.98
2018-12-27T06:14:50.405Z,3.00
2018-12-27T06:17:18.720Z,3.12
2018-12-27T06:19:46.314Z,3.20
2018-12-27T06:22:13.916Z,3.16
2018-12-27T06:24:41.365Z,3.10
2018-12-27T06:27:08.916Z,3.20
2018-12-27T06:29:36.394Z,3.24
2018-12-27T06:32:04.004Z,3.31
2018-12-27T06:34:31.552Z,3.24
2018-12-27T06:36:59.416Z,3.23
2018-12-27T06:39:26.838Z,3.22
2018-12-27T06:41:54.256Z,3.14
2018-12-27T06:44:21.883Z,3.12
2018-12-27T06:46:49.988Z,3.13
2018-12-27T06:49:18.474Z,3.17
2018-12-27T06:51:45.874Z,3.19
2018-12-27T06:54:13.374Z,3.09
2018-12-27T06:56:41.124Z,3.08
2018-12-27T06:59:11.667Z,3.14
2018-12-27T07:01:42.999Z,3.12
2018-12-27T07:04:10.644Z,3.20
2018-12-27T07:06:39.448Z,3.20
2018-12-27T07:09:07.735Z,3.07
2018-12-27T07:11:37.103Z,3.15
2018-12-27T07:14:05.055Z,3.14
2018-12-27T07:16:33.097Z,3.12
2018-12-27T07:19:01.547Z,3.07
2018-12-27T07:21:31.614Z,3.11
2018-12-27T07:23:59.041Z,3.07
2018-12-27T07:26:26.588Z,3.02
2018-12-27T07:28:54.054Z,3.16
2018-12-27T07:31:21.514Z,3.24
2018-12-27T07:33:49.577Z,3.21
2018-12-27T07:36:17.052Z,3.32
2018-12-27T07:38:44.552Z,3.34
2018-12-27T07:41:12.126Z,3.26
2018-12-27T07:43:40.274Z,3.26
2018-12-27T07:46:10.973Z,2.96
2018-12-27T07:48:36.795Z,3.01
2018-12-27T07:51:04.333Z,2.99
2018-12-27T07:53:32.292Z,2.88
2018-12-27T07:55:59.860Z,2.93
2018-12-27T07:58:27.517Z,2.94
2018-12-27T08:00:56.926Z,2.91
2018-12-27T08:03:24.524Z,2.94
2018-12-27T08:05:52.033Z,2.98
2018-12-27T08:08:20.776Z,3.00
2018-12-27T08:10:48.468Z,3.04
2018-12-27T08:13:15.985Z,3.15
2018-12-27T08:15:43.604Z,3.15
2018-12-27T08:18:11.065Z,3.18
2018-12-27T08:20:39.720Z,3.21
2018-12-27T08:23:08.225Z,3.09
2018-12-27T08:25:35.698Z,3.10
2018-12-27T08:28:06.619Z,3.18
2018-12-27T08:30:34.125Z,3.14
2018-12-27T08:33:02.395Z,3.14
2018-12-27T08:35:30.595Z,3.17
2018-12-27T08:37:58.122Z,3.23
2018-12-27T08:40:26.059Z,3.21
2018-12-27T08:42:53.586Z,3.14
2018-12-27T08:45:21.190Z,2.92
2018-12-27T08:47:48.714Z,2.94
2018-12-27T08:50:16.426Z,2.99
2018-12-27T08:52:43.956Z,2.99
2018-12-27T08:55:11.413Z,3.01
2018-12-27T08:57:38.910Z,2.99
2018-12-27T09:00:06.431Z,2.91
2018-12-27T09:02:34.711Z,2.99
2018-12-27T09:05:02.407Z,3.15
2018-12-27T09:07:29.959Z,3.13
2018-12-27T09:09:57.467Z,3.24
2018-12-27T09:12:24.990Z,3.24
2018-12-27T09:14:52.645Z,3.28
2018-12-27T09:17:22.469Z,3.20
2018-12-27T09:19:50.059Z,3.27
2018-12-27T09:22:17.596Z,3.33
2018-12-27T09:24:45.122Z,3.42
2018-12-27T09:27:12.624Z,3.37
2018-12-27T09:29:40.639Z,3.47
2018-12-27T09:32:08.217Z,3.48
2018-12-27T09:34:36.877Z,3.52
2018-12-27T09:37:05.006Z,3.53
2018-12-27T09:39:32.681Z,3.47
2018-12-27T09:42:00.294Z,3.43
2018-12-27T09:44:29.622Z,3.48
2018-12-27T09:46:57.171Z,3.45
2018-12-27T09:49:24.807Z,3.52
2018-12-27T09:51:52.740Z,3.65
2018-12-27T09:54:20.279Z,3.72
2018-12-27T09:56:47.909Z,3.62
2018-12-27T09:59:15.303Z,3.72
2018-12-27T10:01:42.884Z,3.87
2018-12-27T10:04:10.267Z,3.95
2018-12-27T10:06:38.590Z,3.77
2018-12-27T10:09:06.078Z,3.61
2018-12-27T10:11:33.515Z,3.63
2018-12-27T10:14:01.416Z,3.59
2018-12-27T10:16:30.380Z,3.64
2018-12-27T10:18:58.086Z,3.89
2018-12-27T10:21:25.803Z,3.93
2018-12-27T10:23:53.696Z,4.05
2018-12-27T10:26:22.062Z,4.11
2018-12-27T10:28:49.729Z,4.12
2018-12-27T10:31:17.828Z,4.18
2018-12-27T10:33:46.341Z,4.26
2018-12-27T10:36:14.666Z,4.04
2018-12-27T10:38:42.270Z,3.96
2018-12-27T10:41:09.812Z,3.96
2018-12-27T10:43:37.336Z,3.77
2018-12-27T10:46:04.784Z,3.86
2018-12-27T10:48:34.049Z,4.03
2018-12-27T10:51:01.552Z,3.87
2018-12-27T10:53:29.054Z,4.00
2018-12-27T10:55:57.025Z,4.19
2018-12-27T10:58:24.566Z,4.33
2018-12-27T11:00:52.389Z,4.33
2018-12-27T11:03:19.837Z,4.26
2018-12-27T11:05:48.726Z,4.18
2018-12-27T11:08:16.106Z,4.23
2018-12-27T11:10:43.593Z,4.10
2018-12-27T11:13:12.980Z,4.14
2018-12-27T11:15:40.550Z,4.28
2018-12-27T11:18:11.681Z,4.07
2018-12-27T11:20:39.331Z,4.18
2018-12-27T11:23:07.193Z,4.27
2018-12-27T11:25:34.825Z,4.03
2018-12-27T11:28:06.383Z,3.86
2018-12-27T11:30:35.699Z,4.10
2018-12-27T11:33:03.439Z,4.31
2018-12-27T11:35:31.468Z,4.43
2018-12-27T11:37:59.712Z,4.64
2018-12-27T11:40:27.586Z,4.81
2018-12-27T11:42:55.039Z,4.81
2018-12-27T11:45:25.383Z,4.86
2018-12-27T11:47:53.226Z,4.97
2018-12-27T11:50:21.091Z,5.10
2018-12-27T11:52:49.075Z,4.97
2018-12-27T11:55:17.205Z,4.68
2018-12-27T11:57:45.135Z,4.59
2018-12-27T12:00:12.822Z,4.69
2018-12-27T12:02:40.430Z,4.78
2018-12-27T12:05:08.035Z,4.84
2018-12-27T12:07:35.490Z,4.73
2018-12-27T12:10:02.987Z,4.51
2018-12-27T12:12:32.159Z,4.72
2018-12-27T12:14:59.802Z,4.93
2018-12-27T12:17:27.429Z,4.87
2018-12-27T12:19:55.083Z,4.80
2018-12-27T12:22:22.649Z,4.90
2018-12-27T12:24:50.173Z,4.86
2018-12-27T12:27:17.734Z,5.15
2018-12-27T12:29:45.312Z,5.17
2018-12-27T12:32:12.930Z,5.02
2018-12-27T12:34:40.706Z,4.99
2018-12-27T12:37:13.974Z,5.12
2018-12-27T12:39:36.161Z,5.32
2018-12-27T12:42:04.017Z,5.36
2018-12-27T12:44:32.020Z,5.50
2018-12-27T12:47:04.616Z,5.67
2018-12-27T12:49:32.339Z,5.85
2018-12-27T12:51:59.907Z,6.10
2018-12-27T12:54:28.209Z,6.09
2018-12-27T12:56:57.720Z,5.96
2018-12-27T12:59:25.998Z,5.91
2018-12-27T13:01:53.839Z,5.93
2018-12-27T13:04:22.213Z,5.90
2018-12-27T13:06:51.103Z,5.69
2018-12-27T13:09:18.759Z,5.72
2018-12-27T13:11:47.415Z,5.57
2018-12-27T13:14:14.853Z,5.52
2018-12-27T13:16:42.359Z,5.48
2018-12-27T13:19:09.818Z,5.59
2018-12-27T13:21:37.511Z,5.39
2018-12-27T13:24:06.138Z,5.24
2018-12-27T13:26:33.877Z,5.32
2018-12-27T13:29:01.972Z,5.66
2018-12-27T13:31:29.556Z,5.67
2018-12-27T13:33:57.384Z,5.72
2018-12-27T13:36:25.719Z,5.53
2018-12-27T13:38:55.727Z,5.26
2018-12-27T13:41:24.257Z,5.16
2018-12-27T13:43:52.794Z,5.33
2018-12-27T13:46:23.505Z,5.38
2018-12-27T13:48:51.010Z,5.53
2018-12-27T13:51:19.044Z,5.61
2018-12-27T13:53:47.046Z,5.66
2018-12-27T13:56:14.620Z,5.78
2018-12-27T13:58:42.281Z,5.89
2018-12-27T14:01:09.987Z,5.77
2018-12-27T14:03:37.692Z,5.63
2018-12-27T14:06:08.509Z,5.70
2018-12-27T14:08:37.832Z,5.72
2018-12-27T14:11:05.556Z,5.49
2018-12-27T14:13:33.417Z,5.47
2018-12-27T14:16:00.981Z,5.53
2018-12-27T14:18:28.754Z,5.57
2018-12-27T14:20:58.411Z,5.63
2018-12-27T14:23:26.033Z,5.66
2018-12-27T14:25:54.655Z,5.67
2018-12-27T14:28:22.598Z,5.65
2018-12-27T14:30:51.781Z,5.76
2018-12-27T14:33:27.548Z,5.82
2018-12-27T14:35:57.216Z,5.93
2018-12-27T14:38:26.941Z,5.97
2018-12-27T14:40:55.779Z,5.89
2018-12-27T14:43:25.763Z,5.77
2018-12-27T14:45:54.102Z,5.59
2018-12-27T14:48:25.599Z,5.42
2018-12-27T14:50:53.205Z,5.33
2018-12-27T14:53:23.161Z,5.20
2018-12-27T14:55:50.929Z,5.04
2018-12-27T14:58:19.891Z,4.97
2018-12-27T15:00:47.650Z,4.75
2018-12-27T15:03:19.137Z,4.79
2018-12-27T15:05:47.060Z,4.94
2018-12-27T15:08:14.912Z,4.90
2018-12-27T15:10:42.730Z,4.84
2018-12-27T15:13:10.467Z,4.63
2018-12-27T15:15:39.200Z,4.55
2018-12-27T15:18:08.270Z,4.49
2018-12-27T15:20:36.143Z,4.31
2018-12-27T15:23:04.016Z,4.31
2018-12-27T15:25:31.573Z,4.26
2018-12-27T15:27:59.471Z,4.13
2018-12-27T15:30:27.798Z,4.11
2018-12-27T15:32:56.370Z,3.97
2018-12-27T15:37:58.116Z,4.00
2018-12-27T15:40:25.947Z,4.09
2018-12-27T15:42:53.587Z,4.11
2018-12-27T15:45:21.089Z,4.00
2018-12-27T15:47:48.841Z,3.87
2018-12-27T15:50:16.491Z,3.87
2018-12-27T15:52:44.013Z,3.91
2018-12-27T15:55:11.531Z,4.00
2018-12-27T15:57:39.033Z,4.04
2018-12-27T16:00:09.314Z,4.07
2018-12-27T16:02:41.521Z,4.00
2018-12-27T16:05:12.049Z,3.96
2018-12-27T16:07:37.934Z,3.90
2018-12-27T16:10:06.318Z,3.77
2018-12-27T16:12:34.538Z,3.77
2018-12-27T16:15:02.100Z,3.76
2018-12-27T16:17:30.331Z,3.71
2018-12-27T16:19:57.784Z,3.65
2018-12-27T16:22:25.824Z,3.57
2018-12-27T16:24:53.459Z,3.56
2018-12-27T16:27:20.907Z,3.45
2018-12-27T16:29:48.466Z,3.46
2018-12-27T16:32:17.835Z,3.50
2018-12-27T16:34:44.585Z,3.58
2018-12-27T16:37:12.482Z,3.43
2018-12-27T16:39:40.575Z,3.35
2018-12-27T16:42:08.133Z,3.22
2018-12-27T16:44:35.636Z,3.17
2018-12-27T16:47:03.231Z,3.25
2018-12-27T16:49:31.402Z,3.20
2018-12-27T16:51:58.887Z,3.17
2018-12-27T16:54:26.545Z,3.17
2018-12-27T16:56:54.108Z,3.26
2018-12-27T16:59:21.626Z,3.37
2018-12-27T17:01:49.138Z,3.47
2018-12-27T17:04:16.729Z,3.63
2018-12-27T17:06:46.418Z,3.68
2018-12-27T17:09:15.114Z,3.70
2018-12-27T17:11:42.611Z,3.56
2018-12-27T17:14:10.143Z,3.60
2018-12-27T17:16:37.680Z,3.70
2018-12-27T17:19:05.259Z,3.83
2018-12-27T17:21:32.739Z,3.86
2018-12-27T17:24:00.170Z,3.80
2018-12-27T17:26:27.743Z,3.68
2018-12-27T17:28:55.259Z,3.64
2018-12-27T17:31:22.750Z,3.75
2018-12-27T17:33:50.362Z,3.82
2018-12-27T17:36:17.961Z,3.88
2018-12-27T17:38:45.551Z,3.85
2018-12-27T17:41:13.024Z,3.65
2018-12-27T17:43:40.480Z,3.47
2018-12-27T17:46:08.073Z,3.47
2018-12-27T17:48:35.487Z,3.46
2018-12-27T17:51:02.886Z,3.46
2018-12-27T17:53:30.326Z,3.49
2018-12-27T17:55:57.828Z,3.51
2018-12-27T17:58:25.795Z,3.48
2018-12-27T18:00:53.210Z,3.41
2018-12-27T18:03:21.189Z,3.55
2018-12-27T18:05:48.662Z,3.49
2018-12-27T18:08:16.946Z,3.45
2018-12-27T18:10:44.457Z,3.52
2018-12-27T18:13:11.948Z,3.55
2018-12-27T18:15:39.436Z,3.64
2018-12-27T18:18:06.874Z,3.65
2018-12-27T18:20:34.329Z,3.76
2018-12-27T18:23:02.008Z,3.74
2018-12-27T18:25:29.417Z,3.65
2018-12-27T18:27:56.859Z,3.60
2018-12-27T18:30:25.481Z,3.62
2018-12-27T18:32:54.509Z,3.56
2018-12-27T18:35:21.964Z,3.52
2018-12-27T18:37:50.946Z,3.53
2018-12-27T18:40:19.415Z,3.42
2018-12-27T18:42:46.899Z,3.48
2018-12-27T18:45:14.470Z,3.61
2018-12-27T18:47:42.134Z,3.57
2018-12-27T18:50:10.006Z,3.54
2018-12-27T18:52:46.306Z,3.59
2018-12-27T18:55:20.062Z,3.64
2018-12-27T18:57:42.914Z,3.75
2018-12-27T19:00:18.441Z,3.67
2018-12-27T19:02:49.773Z,3.53
2018-12-27T19:05:18.999Z,3.35
2018-12-27T19:07:47.185Z,3.23
2018-12-27T19:10:14.834Z,3.19
2018-12-27T19:12:54.269Z,3.32
2018-12-27T19:15:21.931Z,3.40
2018-12-27T19:17:50.491Z,3.47
2018-12-27T19:20:18.278Z,3.49
2018-12-27T19:22:47.816Z,3.52
2018-12-27T19:25:15.387Z,3.42
2018-12-27T19:27:43.110Z,3.37
2018-12-27T19:30:10.813Z,3.45
2018-12-27T19:32:38.565Z,3.46
2018-12-27T19:35:06.351Z,3.39
2018-12-27T19:37:35.681Z,3.42
2018-12-27T19:40:02.763Z,3.48
2018-12-27T19:42:30.525Z,3.57
2018-12-27T19:44:58.118Z,3.58
2018-12-27T19:47:32.076Z,3.59
2018-12-27T19:52:38.803Z,3.45
2018-12-27T19:55:07.011Z,3.28
2018-12-27T19:57:34.795Z,3.21
2018-12-27T20:00:02.761Z,3.21
2018-12-27T20:02:30.407Z,3.17
2018-12-27T20:05:04.281Z,3.24
2018-12-27T20:07:34.375Z,3.35
2018-12-27T20:10:02.075Z,3.40
2018-12-27T20:12:30.896Z,3.34
2018-12-27T20:14:59.004Z,3.32
2018-12-27T20:17:29.600Z,3.46
2018-12-27T20:19:58.255Z,3.39
2018-12-27T20:22:25.778Z,3.38
2018-12-27T20:24:53.367Z,3.44
2018-12-27T20:27:20.791Z,3.32
2018-12-27T20:29:48.242Z,3.31
2018-12-27T20:32:15.645Z,3.32
2018-12-27T20:34:43.051Z,3.37
2018-12-27T20:37:10.623Z,3.45
2018-12-27T20:39:38.792Z,3.44
2018-12-27T20:42:06.332Z,3.44
2018-12-27T20:44:33.873Z,3.48
2018-12-27T20:47:01.479Z,3.54
2018-12-27T20:49:30.389Z,3.41
2018-12-27T20:51:58.929Z,3.39
2018-12-27T20:54:26.577Z,3.31
2018-12-27T20:56:57.033Z,3.32
2018-12-27T20:59:24.755Z,3.37
2018-12-27T21:01:52.715Z,3.37
2018-12-27T21:04:20.427Z,3.36
2018-12-27T21:06:48.356Z,3.32
2018-12-27T21:09:17.781Z,3.36
2018-12-27T21:11:52.182Z,3.35
2018-12-27T21:14:20.154Z,3.36
2018-12-27T21:16:49.821Z,3.37
2018-12-27T21:19:17.604Z,3.40
2018-12-27T21:21:48.246Z,3.28
2018-12-27T21:24:16.065Z,3.32
2018-12-27T21:26:43.675Z,3.28
2018-12-27T21:31:45.258Z,3.42
2018-12-27T21:34:14.909Z,3.38
2018-12-27T21:36:42.416Z,3.32
2018-12-27T21:39:09.938Z,3.36
2018-12-27T21:41:38.412Z,3.41
2018-12-27T21:44:05.989Z,3.48
2018-12-27T21:46:33.835Z,3.46
2018-12-27T21:49:01.358Z,3.40
2018-12-27T21:51:29.092Z,3.30
2018-12-27T21:53:56.582Z,3.20
2018-12-27T21:56:24.049Z,3.13
2018-12-27T21:58:51.636Z,3.09
2018-12-27T22:01:19.229Z,3.06
2018-12-27T22:03:46.754Z,3.15
2018-12-27T22:06:14.314Z,3.26
2018-12-27T22:08:41.924Z,3.23
2018-12-27T22:11:09.488Z,3.18
2018-12-27T22:13:40.034Z,3.22
2018-12-27T22:16:09.772Z,3.10
2018-12-27T22:18:40.844Z,3.08
2018-12-27T22:21:08.342Z,3.03
2018-12-27T22:23:35.862Z,3.11
2018-12-27T22:26:03.360Z,3.20
2018-12-27T22:28:30.929Z,3.22
2018-12-27T22:30:58.498Z,3.15
2018-12-27T22:33:25.903Z,3.07
2018-12-27T22:35:53.481Z,3.02
2018-12-27T22:38:21.713Z,3.21
2018-12-27T22:40:50.201Z,3.34
2018-12-27T22:43:17.774Z,3.26
2018-12-27T22:45:45.349Z,3.23
2018-12-27T22:48:12.934Z,3.30
2018-12-27T22:50:40.778Z,3.30
2018-12-27T22:53:08.470Z,3.24
2018-12-27T22:55:36.846Z,3.37
2018-12-27T22:58:05.358Z,3.38
2018-12-27T23:00:35.573Z,3.43
2018-12-27T23:03:03.058Z,3.24
2018-12-27T23:05:30.569Z,3.22
2018-12-27T23:07:58.233Z,3.20
2018-12-27T23:10:25.940Z,3.18
2018-12-27T23:12:53.709Z,3.17
2018-12-27T23:15:21.207Z,3.14
2018-12-27T23:17:48.855Z,3.07
2018-12-27T23:20:16.329Z,3.13
2018-12-27T23:22:43.815Z,3.16
2018-12-27T23:25:11.356Z,3.15
2018-12-27T23:27:38.861Z,3.17
2018-12-27T23:30:06.476Z,3.17
2018-12-27T23:32:33.994Z,3.18
2018-12-27T23:35:01.424Z,3.03
2018-12-27T23:37:29.764Z,3.10
2018-12-27T23:39:57.284Z,3.21
2018-12-27T23:42:24.786Z,3.02
2018-12-27T23:44:53.186Z,2.99
2018-12-27T23:47:20.691Z,3.03
2018-12-27T23:49:48.223Z,2.94
2018-12-27T23:52:15.747Z,3.05
2018-12-27T23:54:43.232Z,3.15
2018-12-27T23:57:10.712Z,3.26
2018-12-27T23:59:38.250Z,3.35
